Time;durP1;ratioP1;P1;durP2;ratioP2;P2;SDS_P1;SDS_P2;PMS_P1;PMS_P2;Temp;Humidity;BMP_temperature;BMP_pressure;BME280_temperature;BME280_humidity;BME280_pressure;Samples;Min_cycle;Max_cycle;Signal;HPM_P1;HPM_P2
2021/12/27 00:02:23;;;;;;;14.32;9.20;;;-1.70;99.90;;;;;;5059501;28;20025;-52
2021/12/27 00:04:48;;;;;;;14.60;8.93;;;-1.70;99.90;;;;;;5051920;28;20025;-49
2021/12/27 00:07:15;;;;;;;14.25;9.93;;;-1.70;99.90;;;;;;5047868;28;20040;-53
2021/12/27 00:09:41;;;;;;;18.25;10.43;;;-1.70;99.90;;;;;;5056845;28;20025;-55
2021/12/27 00:12:07;;;;;;;15.52;9.35;;;-1.70;99.90;;;;;;5056750;28;20408;-59
2021/12/27 00:14:33;;;;;;;16.85;10.35;;;-1.70;99.90;;;;;;5056248;28;20489;-55
2021/12/27 00:16:59;;;;;;;17.42;10.15;;;-1.70;99.90;;;;;;5056641;28;20029;-55
2021/12/27 00:19:24;;;;;;;17.42;10.63;;;-1.70;99.90;;;;;;5056566;28;20060;-50
2021/12/27 00:21:50;;;;;;;14.82;10.02;;;-1.60;99.90;;;;;;5056261;28;20508;-57
2021/12/27 00:24:16;;;;;;;14.88;9.45;;;-1.60;99.90;;;;;;5055744;28;20059;-53
2021/12/27 00:26:42;;;;;;;16.33;9.90;;;-1.60;99.90;;;;;;5056114;28;20110;-50
2021/12/27 00:29:07;;;;;;;13.68;9.30;;;-1.50;99.90;;;;;;5055358;28;20515;-53
2021/12/27 00:31:33;;;;;;;14.90;10.05;;;-1.50;99.90;;;;;;5054663;28;20447;-53
2021/12/27 00:33:58;;;;;;;14.75;9.52;;;-1.50;99.90;;;;;;5055204;28;20128;-55
2021/12/27 00:36:24;;;;;;;16.58;9.77;;;-1.40;99.90;;;;;;5056238;28;20037;-53
2021/12/27 00:38:49;;;;;;;14.25;9.30;;;-1.40;99.90;;;;;;5038082;28;20079;-47
2021/12/27 00:41:15;;;;;;;15.25;9.30;;;-1.40;99.90;;;;;;5054788;28;20389;-52
2021/12/27 00:43:41;;;;;;;18.88;10.23;;;-1.40;99.90;;;;;;5036682;28;20040;-49
2021/12/27 00:46:06;;;;;;;14.38;9.82;;;-1.40;99.90;;;;;;5054636;28;20045;-50
2021/12/27 00:48:32;;;;;;;15.18;9.98;;;-1.40;99.90;;;;;;5054604;28;20449;-53
2021/12/27 00:50:57;;;;;;;17.08;10.00;;;-1.40;99.90;;;;;;5054686;28;20029;-50
2021/12/27 00:53:23;;;;;;;15.90;10.82;;;-1.30;99.90;;;;;;5019164;28;20041;-52
2021/12/27 00:55:48;;;;;;;16.13;10.05;;;-1.30;99.90;;;;;;5042853;28;20025;-53
2021/12/27 00:58:14;;;;;;;14.75;9.63;;;-1.30;99.90;;;;;;5055023;28;20052;-50
2021/12/27 01:00:40;;;;;;;16.02;10.13;;;-1.30;99.90;;;;;;5055287;28;20036;-52
2021/12/27 01:03:05;;;;;;;15.02;9.60;;;-1.40;99.90;;;;;;5054416;28;20356;-54
2021/12/27 01:05:31;;;;;;;15.27;10.13;;;-1.50;99.90;;;;;;5054885;28;20037;-53
2021/12/27 01:07:56;;;;;;;14.75;9.98;;;-1.50;99.90;;;;;;5055437;28;20043;-49
2021/12/27 01:13:05;;;;;;;14.77;9.70;;;-1.40;99.90;;;;;;5042466;28;20060;-53
2021/12/27 01:15:47;;;;;;;14.93;9.73;;;-1.30;99.90;;;;;;5034315;28;20095;-52
2021/12/27 01:18:13;;;;;;;16.52;9.70;;;-1.30;99.90;;;;;;5049242;28;20404;-49
2021/12/27 01:20:39;;;;;;;16.25;9.43;;;-1.30;99.90;;;;;;5054400;28;20064;-54
2021/12/27 01:23:04;;;;;;;14.55;9.23;;;-1.30;99.90;;;;;;5054309;28;20484;-51
2021/12/27 01:25:30;;;;;;;14.68;9.57;;;-1.20;99.90;;;;;;5055346;28;20392;-57
2021/12/27 01:27:56;;;;;;;16.75;9.80;;;-1.20;99.90;;;;;;5053959;28;20124;-57
2021/12/27 01:30:22;;;;;;;15.30;9.25;;;-1.30;99.90;;;;;;5054735;28;20187;-48
2021/12/27 01:32:53;;;;;;;15.27;9.93;;;-1.20;99.90;;;;;;5054649;28;20033;-53
2021/12/27 01:35:20;;;;;;;15.30;9.88;;;-1.20;99.90;;;;;;5054877;28;20450;-51
2021/12/27 01:37:49;;;;;;;17.40;9.45;;;-1.30;99.90;;;;;;5055456;28;20491;-49
2021/12/27 01:40:15;;;;;;;11.32;8.63;;;-1.30;99.90;;;;;;5054876;28;20041;-56
2021/12/27 01:43:00;;;;;;;15.30;9.90;;;-1.30;99.90;;;;;;5054250;28;20028;-53
2021/12/27 01:45:26;;;;;;;13.45;9.35;;;-1.30;99.90;;;;;;5053767;28;20476;-51
2021/12/27 01:47:52;;;;;;;14.57;9.38;;;-1.30;99.90;;;;;;5054884;28;20033;-52
2021/12/27 01:50:17;;;;;;;15.55;9.63;;;-1.20;99.90;;;;;;5054454;28;20033;-54
2021/12/27 01:52:43;;;;;;;13.45;8.82;;;-1.20;99.90;;;;;;5054296;28;20033;-56
2021/12/27 01:55:09;;;;;;;14.50;9.48;;;-1.20;99.90;;;;;;5054244;28;20036;-49
2021/12/27 01:57:34;;;;;;;16.27;9.82;;;-1.20;99.90;;;;;;5052669;28;20167;-53
2021/12/27 02:00:00;;;;;;;16.70;9.93;;;-1.20;99.90;;;;;;5034841;28;20049;-50
2021/12/27 02:02:26;;;;;;;19.35;10.18;;;-1.20;99.90;;;;;;5044578;28;20063;-54
2021/12/27 02:04:51;;;;;;;17.83;11.00;;;-1.20;99.90;;;;;;5054650;28;20029;-53
2021/12/27 02:07:17;;;;;;;15.00;10.15;;;-1.20;99.90;;;;;;5054532;28;20040;-51
2021/12/27 02:09:54;;;;;;;16.27;10.43;;;-1.20;99.90;;;;;;5054180;28;20112;-52
2021/12/27 02:12:19;;;;;;;15.25;10.10;;;-1.20;99.90;;;;;;5055056;28;20401;-53
2021/12/27 02:14:45;;;;;;;13.50;9.35;;;-1.20;99.90;;;;;;5036111;28;20029;-53
2021/12/27 02:17:11;;;;;;;14.80;9.90;;;-1.20;99.90;;;;;;5053918;28;20040;-49
2021/12/27 02:19:37;;;;;;;14.65;9.98;;;-1.20;99.90;;;;;;5054106;28;20037;-52
2021/12/27 02:22:03;;;;;;;13.88;9.45;;;-1.20;99.90;;;;;;5035264;28;20476;-51
2021/12/27 02:24:29;;;;;;;16.15;9.50;;;-1.20;99.90;;;;;;5053686;28;20091;-49
2021/12/27 02:26:54;;;;;;;15.73;9.98;;;-1.10;99.90;;;;;;5053835;28;20087;-51
2021/12/27 02:29:20;;;;;;;14.90;9.82;;;-1.10;99.90;;;;;;5054291;28;20032;-53
2021/12/27 02:31:47;;;;;;;17.45;10.35;;;-1.00;99.90;;;;;;5054052;28;20044;-51
2021/12/27 02:34:13;;;;;;;15.50;10.23;;;-1.00;99.90;;;;;;5053999;28;20041;-53
2021/12/27 02:36:39;;;;;;;14.07;9.38;;;-1.00;99.90;;;;;;5053899;28;20051;-55
2021/12/27 02:39:04;;;;;;;17.48;10.75;;;-1.00;99.90;;;;;;5054290;28;20468;-56
2021/12/27 02:41:30;;;;;;;17.88;9.80;;;-1.00;99.90;;;;;;5053615;28;20408;-48
2021/12/27 02:43:56;;;;;;;16.58;10.57;;;-0.90;99.90;;;;;;5051787;28;20095;-50
2021/12/27 02:46:22;;;;;;;16.95;10.43;;;-1.00;99.90;;;;;;5050339;28;20037;-50
2021/12/27 02:48:48;;;;;;;16.50;9.35;;;-0.90;99.90;;;;;;5051182;28;20029;-49
2021/12/27 02:51:17;;;;;;;15.77;9.93;;;-0.90;99.90;;;;;;5051416;28;20033;-48
2021/12/27 02:53:44;;;;;;;15.27;9.65;;;-0.90;99.90;;;;;;5051244;28;20068;-50
2021/12/27 02:56:10;;;;;;;14.43;9.43;;;-0.90;99.90;;;;;;5051538;28;20032;-50
2021/12/27 02:58:36;;;;;;;14.52;9.63;;;-0.90;99.90;;;;;;5051240;28;20048;-49
2021/12/27 03:01:12;;;;;;;17.10;10.23;;;-0.80;99.90;;;;;;5051180;28;20037;-47
2021/12/27 03:03:38;;;;;;;16.83;10.45;;;-0.80;99.90;;;;;;5053144;28;20082;-55
2021/12/27 03:06:05;;;;;;;16.20;9.90;;;-0.80;99.90;;;;;;5053139;28;20029;-52
2021/12/27 03:08:33;;;;;;;21.88;11.88;;;-0.80;99.90;;;;;;5016060;28;20056;-55
2021/12/27 03:11:00;;;;;;;16.15;10.43;;;-0.70;99.90;;;;;;5034076;28;20489;-52
2021/12/27 03:13:28;;;;;;;18.83;11.15;;;-0.70;99.90;;;;;;5052840;28;20091;-49
2021/12/27 03:16:00;;;;;;;16.20;10.02;;;-0.70;99.90;;;;;;5053032;28;20380;-50
2021/12/27 03:18:26;;;;;;;16.85;10.77;;;-0.70;99.90;;;;;;5052645;28;20712;-57
2021/12/27 03:20:53;;;;;;;15.07;10.20;;;-0.70;99.90;;;;;;5053686;28;20068;-56
2021/12/27 03:23:19;;;;;;;14.77;10.15;;;-0.70;99.90;;;;;;5053545;28;20120;-51
2021/12/27 03:25:45;;;;;;;16.17;10.00;;;-0.70;99.90;;;;;;5035063;28;20068;-51
2021/12/27 03:28:12;;;;;;;17.63;10.80;;;-0.70;99.90;;;;;;5052661;28;20025;-50
2021/12/27 03:30:38;;;;;;;15.10;10.65;;;-0.70;99.90;;;;;;5052946;28;20039;-53
2021/12/27 03:33:05;;;;;;;17.27;11.02;;;-0.70;99.90;;;;;;5052871;28;20507;-51
2021/12/27 03:35:36;;;;;;;16.17;10.43;;;-0.70;99.90;;;;;;5052867;28;20036;-53
2021/12/27 03:38:05;;;;;;;15.90;11.30;;;-0.70;99.90;;;;;;5053193;28;20480;-50
2021/12/27 03:40:31;;;;;;;20.42;11.93;;;-0.60;99.90;;;;;;5036544;28;20087;-52
2021/12/27 03:42:57;;;;;;;15.63;11.77;;;-0.60;99.90;;;;;;5053370;28;20484;-52
2021/12/27 03:45:27;;;;;;;18.67;11.63;;;-0.60;99.90;;;;;;5053738;28;20423;-50
2021/12/27 03:47:54;;;;;;;16.13;11.50;;;-0.60;99.90;;;;;;5052886;28;20048;-55
2021/12/27 03:50:20;;;;;;;22.02;11.88;;;-0.60;99.90;;;;;;5053192;28;20052;-51
2021/12/27 03:52:46;;;;;;;18.15;12.23;;;-0.60;99.90;;;;;;5035810;28;20381;-52
2021/12/27 03:55:12;;;;;;;18.38;12.55;;;-0.60;99.90;;;;;;5053145;28;20045;-54
2021/12/27 03:57:40;;;;;;;20.52;13.20;;;-0.60;99.90;;;;;;5052568;28;20063;-55
2021/12/27 04:00:30;;;;;;;19.25;12.55;;;-0.60;99.90;;;;;;5052465;28;20542;-50
2021/12/27 04:02:59;;;;;;;20.08;13.45;;;-0.70;99.90;;;;;;5052949;28;20044;-51
2021/12/27 04:05:26;;;;;;;20.90;13.20;;;-0.60;99.90;;;;;;5054118;28;20117;-53
2021/12/27 04:08:00;;;;;;;19.10;12.30;;;-0.60;99.90;;;;;;5017810;28;20389;-53
2021/12/27 04:10:27;;;;;;;17.63;12.40;;;-0.60;99.90;;;;;;5056134;28;20037;-49
2021/12/27 04:12:52;;;;;;;16.63;12.23;;;-0.60;99.90;;;;;;5056530;28;20032;-59
2021/12/27 04:15:18;;;;;;;21.27;13.88;;;-0.60;99.90;;;;;;5056308;28;20442;-57
2021/12/27 04:17:43;;;;;;;18.00;13.13;;;-0.50;99.90;;;;;;5056190;28;20049;-55
2021/12/27 04:20:09;;;;;;;19.10;12.63;;;-0.40;99.90;;;;;;5055656;28;20045;-50
2021/12/27 04:22:35;;;;;;;17.83;13.30;;;-0.40;99.90;;;;;;5055401;28;20029;-53
2021/12/27 04:25:01;;;;;;;17.63;12.60;;;-0.40;99.90;;;;;;5056269;28;20083;-52
2021/12/27 04:27:27;;;;;;;20.17;13.18;;;-0.30;99.90;;;;;;5055769;28;20041;-55
2021/12/27 04:29:53;;;;;;;16.92;12.30;;;-0.30;99.90;;;;;;5055467;28;20111;-50
2021/12/27 04:32:18;;;;;;;22.23;13.60;;;-0.40;99.90;;;;;;5055227;28;20029;-51
2021/12/27 04:34:44;;;;;;;20.80;13.23;;;-0.40;99.90;;;;;;5055634;28;20150;-52
2021/12/27 04:37:09;;;;;;;19.23;13.95;;;-0.40;99.90;;;;;;5054994;28;20041;-52
2021/12/27 04:39:35;;;;;;;17.77;12.35;;;-0.30;99.90;;;;;;5037409;28;20037;-50
2021/12/27 04:42:02;;;;;;;21.15;13.25;;;-0.30;99.90;;;;;;5054857;28;20047;-56
2021/12/27 04:44:27;;;;;;;20.00;13.00;;;-0.30;99.90;;;;;;5037624;28;20595;-54
2021/12/27 04:46:53;;;;;;;21.52;14.10;;;-0.30;99.90;;;;;;5037380;28;20112;-53
2021/12/27 04:49:19;;;;;;;21.58;12.82;;;-0.20;99.90;;;;;;5055306;28;20043;-57
2021/12/27 04:51:45;;;;;;;21.33;13.18;;;-0.20;99.90;;;;;;5055096;28;20112;-54
2021/12/27 04:54:11;;;;;;;22.42;13.70;;;-0.20;99.90;;;;;;5054192;28;20052;-56
2021/12/27 04:56:36;;;;;;;21.48;14.50;;;-0.20;99.90;;;;;;5054922;28;20510;-52
2021/12/27 04:59:02;;;;;;;19.67;13.60;;;-0.20;99.90;;;;;;5055299;28;20037;-49
2021/12/27 05:01:28;;;;;;;19.20;13.23;;;-0.10;99.90;;;;;;5055004;28;20134;-51
2021/12/27 05:03:54;;;;;;;19.92;13.05;;;-0.10;99.90;;;;;;5055244;28;20075;-54
2021/12/27 05:06:20;;;;;;;20.52;13.65;;;-0.10;99.90;;;;;;5037115;28;20075;-49
2021/12/27 05:08:48;;;;;;;18.80;13.40;;;-0.10;99.90;;;;;;5037221;28;20036;-52
2021/12/27 05:11:14;;;;;;;19.52;13.45;;;0.00;99.90;;;;;;5036763;28;20094;-51
2021/12/27 05:13:39;;;;;;;20.88;13.38;;;0.00;99.90;;;;;;5055389;28;20041;-50
2021/12/27 05:16:05;;;;;;;26.40;14.35;;;0.00;99.90;;;;;;5038303;28;20064;-48
2021/12/27 05:18:31;;;;;;;21.25;14.00;;;0.10;99.90;;;;;;5055867;28;20451;-52
2021/12/27 05:20:56;;;;;;;23.42;13.93;;;0.10;99.90;;;;;;5053876;28;20092;-50
2021/12/27 05:23:22;;;;;;;20.83;14.00;;;0.00;99.90;;;;;;5054415;28;20045;-51
2021/12/27 05:25:47;;;;;;;21.48;15.43;;;0.00;99.90;;;;;;5055223;28;20182;-52
2021/12/27 05:28:14;;;;;;;20.77;15.48;;;0.00;99.90;;;;;;5055681;28;20036;-50
2021/12/27 05:30:41;;;;;;;21.48;14.35;;;0.00;99.90;;;;;;5055453;28;20047;-54
2021/12/27 05:33:07;;;;;;;27.48;16.30;;;0.00;99.90;;;;;;5052160;28;20043;-50
2021/12/27 05:35:33;;;;;;;21.90;15.15;;;0.00;99.90;;;;;;5035473;28;20029;-51
2021/12/27 05:38:00;;;;;;;22.45;15.15;;;0.10;99.90;;;;;;5034743;28;20104;-50
2021/12/27 05:40:25;;;;;;;22.30;15.40;;;0.10;99.90;;;;;;5048335;28;20467;-49
2021/12/27 05:42:53;;;;;;;26.70;16.60;;;0.20;99.90;;;;;;5054517;28;20033;-53
2021/12/27 05:45:19;;;;;;;23.30;15.23;;;0.10;99.90;;;;;;5054248;28;20044;-50
2021/12/27 05:47:45;;;;;;;23.08;15.65;;;0.20;99.90;;;;;;5036758;28;20072;-51
2021/12/27 05:50:12;;;;;;;23.77;16.83;;;0.20;99.90;;;;;;5055352;28;20083;-51
2021/12/27 05:52:38;;;;;;;23.75;16.35;;;0.20;99.90;;;;;;5054376;28;20121;-52
2021/12/27 05:55:05;;;;;;;24.98;16.10;;;0.20;99.90;;;;;;5054849;28;20068;-48
2021/12/27 05:57:31;;;;;;;22.70;16.55;;;0.20;99.90;;;;;;5055235;28;20029;-52
2021/12/27 05:59:57;;;;;;;24.00;17.25;;;0.20;99.90;;;;;;5035255;28;20062;-54
2021/12/27 06:02:23;;;;;;;23.95;16.75;;;0.10;99.90;;;;;;5033790;28;20040;-52
2021/12/27 06:04:49;;;;;;;24.25;17.05;;;0.10;99.90;;;;;;5054538;28;20021;-51
2021/12/27 06:07:15;;;;;;;24.38;17.25;;;0.20;99.90;;;;;;5054496;28;20033;-54
2021/12/27 06:09:40;;;;;;;25.48;16.60;;;0.20;99.90;;;;;;5054742;28;20029;-53
2021/12/27 06:12:06;;;;;;;24.02;16.67;;;0.20;99.90;;;;;;5036421;28;20404;-48
2021/12/27 06:14:32;;;;;;;26.08;16.98;;;0.30;99.90;;;;;;5053770;28;20087;-48
2021/12/27 06:16:58;;;;;;;22.50;16.60;;;0.20;99.90;;;;;;5036625;28;20508;-49
2021/12/27 06:19:23;;;;;;;27.63;17.45;;;0.30;99.90;;;;;;5036246;28;20045;-50
2021/12/27 06:21:49;;;;;;;25.25;17.67;;;0.30;99.90;;;;;;5053987;28;20037;-52
2021/12/27 06:24:15;;;;;;;26.13;17.98;;;0.30;99.90;;;;;;5053876;28;20033;-56
2021/12/27 06:26:41;;;;;;;24.92;17.52;;;0.30;99.90;;;;;;5053745;28;20117;-55
2021/12/27 06:29:07;;;;;;;25.15;17.98;;;0.40;99.90;;;;;;5054254;28;20057;-49
2021/12/27 06:31:32;;;;;;;28.52;17.23;;;0.40;99.90;;;;;;5053191;28;20112;-51
2021/12/27 06:33:58;;;;;;;26.85;17.30;;;0.40;99.90;;;;;;5035521;28;20037;-48
2021/12/27 06:36:24;;;;;;;35.97;23.38;;;0.50;99.90;;;;;;5054063;28;20047;-53
2021/12/27 06:38:50;;;;;;;27.92;18.15;;;0.50;99.90;;;;;;5054020;28;20047;-57
2021/12/27 06:41:16;;;;;;;23.45;16.42;;;0.50;99.90;;;;;;5053504;28;20102;-53
2021/12/27 06:43:42;;;;;;;24.45;16.10;;;0.50;99.90;;;;;;5040458;28;20405;-56
2021/12/27 06:46:08;;;;;;;26.58;17.23;;;0.50;99.90;;;;;;5039057;28;20044;-54
2021/12/27 06:48:34;;;;;;;23.70;16.45;;;0.50;99.90;;;;;;5053552;28;20029;-48
2021/12/27 06:51:00;;;;;;;24.70;16.73;;;0.60;99.90;;;;;;5053196;28;20083;-55
2021/12/27 06:53:28;;;;;;;24.45;16.58;;;0.60;99.90;;;;;;5053094;28;20037;-50
2021/12/27 06:55:54;;;;;;;24.50;17.17;;;0.70;99.90;;;;;;5053228;28;20426;-54
2021/12/27 06:58:20;;;;;;;25.33;17.27;;;0.60;99.90;;;;;;5053402;28;20052;-51
2021/12/27 07:00:45;;;;;;;21.30;15.73;;;0.70;99.90;;;;;;5049753;28;20743;-54
2021/12/27 07:03:11;;;;;;;28.13;17.55;;;0.60;99.90;;;;;;5026130;28;20040;-54
2021/12/27 07:05:37;;;;;;;24.05;17.52;;;0.60;99.90;;;;;;5052904;28;20028;-55
2021/12/27 07:08:03;;;;;;;23.92;17.35;;;0.60;99.90;;;;;;5035644;28;20032;-57
2021/12/27 07:10:31;;;;;;;24.80;16.63;;;0.60;99.90;;;;;;5033376;28;20026;-55
2021/12/27 07:12:56;;;;;;;25.00;16.90;;;0.60;99.90;;;;;;5033058;28;20045;-54
2021/12/27 07:15:22;;;;;;;25.08;16.77;;;0.70;99.90;;;;;;5032902;28;20041;-54
2021/12/27 07:17:47;;;;;;;23.70;16.30;;;0.70;99.90;;;;;;5052447;28;20045;-54
2021/12/27 07:20:13;;;;;;;25.42;17.13;;;0.70;99.90;;;;;;5052657;28;20111;-54
2021/12/27 07:22:39;;;;;;;24.17;16.67;;;0.80;99.90;;;;;;5052492;28;20473;-57
2021/12/27 07:25:05;;;;;;;22.65;15.60;;;0.80;99.90;;;;;;5053053;28;20036;-56
2021/12/27 07:27:31;;;;;;;23.38;16.55;;;0.90;99.90;;;;;;5053247;28;20484;-53
2021/12/27 07:29:57;;;;;;;21.58;15.98;;;0.90;99.90;;;;;;5035139;28;20041;-55
2021/12/27 07:32:22;;;;;;;20.75;16.02;;;0.90;99.90;;;;;;5052618;28;20060;-50
2021/12/27 07:34:48;;;;;;;23.88;16.48;;;1.00;99.90;;;;;;5052149;28;20033;-54
2021/12/27 07:37:17;;;;;;;22.65;16.40;;;1.00;99.90;;;;;;5052799;28;20110;-57
2021/12/27 07:39:44;;;;;;;22.02;15.48;;;1.00;99.90;;;;;;5051907;28;20505;-53
2021/12/27 07:42:09;;;;;;;24.17;15.07;;;1.10;99.90;;;;;;5034093;28;20090;-56
2021/12/27 07:44:35;;;;;;;24.70;16.67;;;1.10;99.90;;;;;;5051709;28;20024;-57
2021/12/27 07:47:01;;;;;;;26.25;17.23;;;1.10;99.90;;;;;;5056304;28;20056;-55
2021/12/27 07:49:26;;;;;;;23.45;16.83;;;1.10;99.90;;;;;;5057155;28;20381;-54
2021/12/27 07:51:52;;;;;;;22.83;16.02;;;1.10;99.90;;;;;;5056115;28;20488;-57
2021/12/27 07:54:18;;;;;;;26.38;17.25;;;1.10;99.90;;;;;;5056445;28;20124;-54
2021/12/27 07:56:44;;;;;;;22.05;16.40;;;1.10;99.90;;;;;;5056791;28;20047;-56
2021/12/27 07:59:10;;;;;;;23.63;16.27;;;1.10;99.90;;;;;;5056441;28;20037;-54
2021/12/27 08:01:37;;;;;;;25.90;16.35;;;1.10;99.90;;;;;;5021499;28;20037;-56
2021/12/27 08:04:05;;;;;;;23.13;16.42;;;1.20;99.90;;;;;;5056254;28;20497;-55
2021/12/27 08:06:31;;;;;;;25.90;16.58;;;1.20;99.90;;;;;;5056575;28;20029;-54
2021/12/27 08:08:57;;;;;;;25.50;16.00;;;1.20;99.90;;;;;;5056678;28;20025;-51
2021/12/27 08:11:24;;;;;;;21.02;15.15;;;1.20;99.90;;;;;;5055926;28;20025;-55
2021/12/27 08:13:50;;;;;;;22.15;16.45;;;1.20;99.90;;;;;;5056101;28;20029;-50
2021/12/27 08:16:17;;;;;;;22.13;16.88;;;1.20;99.90;;;;;;5055832;28;20423;-50
2021/12/27 08:18:46;;;;;;;24.55;16.20;;;1.30;99.90;;;;;;5055683;28;20037;-53
2021/12/27 08:21:12;;;;;;;26.38;16.77;;;1.30;99.90;;;;;;5056478;28;20090;-55
2021/12/27 08:23:38;;;;;;;27.00;16.55;;;1.30;99.90;;;;;;5055601;28;20076;-49
2021/12/27 08:26:04;;;;;;;27.02;16.75;;;1.30;99.90;;;;;;5055390;28;20048;-52
2021/12/27 08:28:31;;;;;;;25.42;17.42;;;1.40;99.90;;;;;;5055430;28;20111;-51
2021/12/27 08:30:57;;;;;;;23.73;16.30;;;1.50;99.90;;;;;;5055348;28;20060;-51
2021/12/27 08:33:22;;;;;;;27.67;16.70;;;1.50;99.90;;;;;;5055782;28;20108;-52
2021/12/27 08:35:48;;;;;;;26.10;17.70;;;1.50;99.90;;;;;;5055897;28;20091;-51
2021/12/27 08:38:16;;;;;;;22.48;17.35;;;1.60;99.90;;;;;;5055394;28;20571;-56
2021/12/27 08:40:41;;;;;;;27.13;17.40;;;1.70;99.90;;;;;;5054978;28;20045;-54
2021/12/27 08:43:07;;;;;;;25.98;17.23;;;1.70;99.90;;;;;;5040708;28;20568;-55
2021/12/27 08:45:33;;;;;;;25.75;16.85;;;1.70;99.90;;;;;;5055031;28;20203;-54
2021/12/27 08:47:59;;;;;;;27.63;17.55;;;1.80;99.90;;;;;;5055475;28;20039;-52
2021/12/27 08:50:24;;;;;;;25.40;16.88;;;1.90;99.90;;;;;;5054849;28;20036;-56
2021/12/27 08:52:50;;;;;;;25.80;18.17;;;1.90;99.90;;;;;;5054488;28;20036;-53
2021/12/27 08:55:16;;;;;;;34.33;18.10;;;1.90;99.90;;;;;;5036299;28;20243;-56
2021/12/27 08:57:43;;;;;;;25.25;16.90;;;1.90;99.90;;;;;;5054845;28;20086;-58
2021/12/27 09:00:11;;;;;;;26.45;17.15;;;1.90;99.90;;;;;;5054637;28;20029;-57
2021/12/27 09:02:37;;;;;;;24.77;18.27;;;1.90;99.90;;;;;;5054818;28;20033;-54
2021/12/27 09:05:04;;;;;;;24.35;16.73;;;2.00;99.90;;;;;;5055680;28;20029;-53
2021/12/27 09:07:29;;;;;;;28.63;19.67;;;2.00;99.90;;;;;;5055369;28;20028;-56
2021/12/27 09:09:55;;;;;;;25.77;18.73;;;2.00;99.90;;;;;;5054529;28;20111;-51
2021/12/27 09:12:20;;;;;;;27.85;17.30;;;2.00;99.90;;;;;;5055011;28;20051;-56
2021/12/27 09:14:46;;;;;;;25.75;17.77;;;2.00;99.90;;;;;;5055309;28;20029;-52
2021/12/27 09:17:12;;;;;;;26.80;19.10;;;2.00;99.90;;;;;;5055215;28;20189;-56
2021/12/27 09:19:38;;;;;;;26.98;19.05;;;2.00;99.90;;;;;;5055311;28;20500;-53
2021/12/27 09:22:03;;;;;;;29.33;19.88;;;2.00;99.90;;;;;;5054819;28;20036;-55
2021/12/27 09:24:31;;;;;;;29.08;18.80;;;2.00;99.90;;;;;;5055043;28;20449;-54
2021/12/27 09:26:57;;;;;;;28.80;18.35;;;2.00;99.90;;;;;;5037039;28;20029;-51
2021/12/27 09:29:23;;;;;;;28.55;18.98;;;2.10;99.90;;;;;;5054633;28;20040;-55
2021/12/27 09:31:50;;;;;;;25.45;17.65;;;2.10;99.90;;;;;;5050509;28;20037;-54
2021/12/27 09:34:16;;;;;;;26.77;17.85;;;2.20;99.90;;;;;;5033867;28;20025;-55
2021/12/27 09:36:42;;;;;;;35.28;22.45;;;2.10;99.90;;;;;;5040831;28;20029;-54
2021/12/27 09:39:07;;;;;;;24.85;18.48;;;2.20;99.90;;;;;;5055138;28;20033;-55
2021/12/27 09:41:33;;;;;;;26.42;19.00;;;2.20;99.90;;;;;;5054358;28;20060;-50
2021/12/27 09:43:59;;;;;;;24.27;17.75;;;2.20;99.90;;;;;;5054093;28;20135;-52
2021/12/27 09:46:25;;;;;;;22.75;17.83;;;2.20;99.90;;;;;;5054460;28;20043;-55
2021/12/27 09:48:54;;;;;;;25.42;17.80;;;2.30;99.90;;;;;;5054562;28;20025;-55
2021/12/27 09:51:20;;;;;;;25.17;17.65;;;2.30;99.90;;;;;;5054620;28;20523;-53
2021/12/27 09:53:47;;;;;;;26.92;18.83;;;2.30;99.90;;;;;;5054813;28;20032;-52
2021/12/27 09:56:12;;;;;;;27.27;18.75;;;2.30;99.90;;;;;;5049709;28;20033;-58
2021/12/27 09:58:39;;;;;;;23.92;17.88;;;2.30;99.90;;;;;;5054351;28;20089;-55
2021/12/27 10:01:06;;;;;;;28.98;20.02;;;2.30;99.90;;;;;;5053579;28;20029;-55
2021/12/27 10:04:02;;;;;;;24.38;17.63;;;2.40;99.90;;;;;;5049940;28;20018;-56
2021/12/27 10:06:29;;;;;;;25.67;17.98;;;2.50;99.90;;;;;;5048665;28;20028;-56
2021/12/27 10:08:58;;;;;;;24.30;17.20;;;2.50;99.90;;;;;;5053924;28;20040;-57
2021/12/27 10:11:32;;;;;;;23.17;17.23;;;2.60;99.90;;;;;;5053869;28;20047;-59
2021/12/27 10:14:02;;;;;;;24.52;17.48;;;2.70;99.90;;;;;;5058224;28;20028;-56
2021/12/27 10:16:28;;;;;;;26.77;16.95;;;2.90;99.90;;;;;;5055561;28;20048;-60
2021/12/27 10:18:56;;;;;;;20.98;15.30;;;3.00;99.90;;;;;;5073859;28;20039;-59
2021/12/27 10:21:22;;;;;;;21.90;16.02;;;3.00;99.90;;;;;;5073382;28;20619;-53
2021/12/27 10:23:50;;;;;;;22.48;16.45;;;3.00;99.90;;;;;;5053829;28;20098;-54
2021/12/27 10:26:18;;;;;;;23.58;16.98;;;2.90;99.90;;;;;;5044396;28;20052;-54
2021/12/27 10:28:44;;;;;;;28.92;16.80;;;2.80;99.90;;;;;;5033823;28;20021;-58
2021/12/27 10:31:10;;;;;;;23.83;17.48;;;2.80;99.90;;;;;;5015733;28;20036;-54
2021/12/27 10:33:36;;;;;;;25.13;16.90;;;2.80;99.90;;;;;;5015477;28;20067;-58
2021/12/27 10:36:02;;;;;;;24.88;16.25;;;2.90;99.90;;;;;;5033659;28;20041;-55
2021/12/27 10:38:36;;;;;;;23.33;16.55;;;3.00;99.90;;;;;;4999315;28;20390;-58
2021/12/27 10:41:11;;;;;;;23.77;15.90;;;3.10;99.90;;;;;;5033002;28;20033;-56
2021/12/27 10:43:42;;;;;;;24.42;17.20;;;3.10;99.90;;;;;;5034348;28;20041;-57
2021/12/27 10:46:18;;;;;;;22.90;16.00;;;3.10;99.90;;;;;;5033143;28;20087;-59
2021/12/27 10:48:47;;;;;;;25.58;17.33;;;3.20;99.90;;;;;;5033222;28;20033;-57
2021/12/27 10:51:14;;;;;;;22.55;16.33;;;3.10;99.90;;;;;;5052888;28;20040;-57
2021/12/27 10:53:48;;;;;;;25.63;17.77;;;3.20;99.90;;;;;;5052816;28;20029;-56
2021/12/27 10:56:15;;;;;;;;;;;3.20;99.90;;;;;;5054350;28;20037;-54
2021/12/27 10:58:48;;;;;;;24.73;16.83;;;3.30;99.90;;;;;;5053861;28;19935;-52
2021/12/27 11:01:19;;;;;;;24.52;16.95;;;3.20;99.90;;;;;;5048945;28;20025;-55
2021/12/27 11:03:50;;;;;;;34.70;17.60;;;3.20;99.90;;;;;;5053012;28;20056;-54
2021/12/27 11:06:24;;;;;;;30.55;17.35;;;3.40;99.90;;;;;;5054505;28;20027;-52
2021/12/27 11:08:51;;;;;;;23.02;16.92;;;3.50;99.90;;;;;;5042493;28;20090;-55
2021/12/27 11:11:19;;;;;;;22.02;16.70;;;3.50;99.90;;;;;;5035967;28;20040;-52
2021/12/27 11:13:47;;;;;;;21.27;15.88;;;3.50;99.90;;;;;;5052422;28;20107;-59
2021/12/27 11:16:13;;;;;;;20.92;15.93;;;3.40;99.90;;;;;;5052650;28;20085;-55
2021/12/27 11:18:39;;;;;;;21.63;16.00;;;3.40;99.90;;;;;;5052698;28;20060;-56
2021/12/27 11:21:19;;;;;;;23.25;16.33;;;3.40;99.90;;;;;;5057004;28;20055;-56
2021/12/27 11:23:49;;;;;;;23.52;17.65;;;3.40;99.90;;;;;;5038092;28;20037;-61
2021/12/27 11:26:23;;;;;;;26.63;19.63;;;3.30;99.90;;;;;;5057382;28;20500;-54
2021/12/27 11:28:49;;;;;;;23.50;16.58;;;3.30;99.90;;;;;;5056798;28;20036;-60
2021/12/27 11:31:24;;;;;;;25.48;16.27;;;3.20;99.90;;;;;;5039066;28;20033;-61
2021/12/27 11:33:54;;;;;;;25.20;18.58;;;3.20;99.90;;;;;;5038557;28;20420;-57
2021/12/27 11:36:26;;;;;;;26.23;17.40;;;3.20;99.90;;;;;;5040098;28;20159;-59
2021/12/27 11:38:52;;;;;;;23.42;17.90;;;3.20;99.90;;;;;;5056612;28;20477;-54
2021/12/27 11:41:24;;;;;;;25.67;17.25;;;3.20;99.90;;;;;;5055852;28;20045;-56
2021/12/27 11:43:56;;;;;;;24.20;18.00;;;3.30;99.90;;;;;;5056830;28;20032;-53
2021/12/27 11:46:25;;;;;;;23.42;16.23;;;3.20;99.90;;;;;;5057672;28;20032;-58
2021/12/27 11:48:54;;;;;;;23.30;17.30;;;3.20;99.90;;;;;;5056020;28;20087;-55
2021/12/27 11:51:33;;;;;;;24.63;16.13;;;3.20;99.90;;;;;;5056270;28;20033;-53
2021/12/27 11:53:59;;;;;;;21.50;16.67;;;3.30;99.90;;;;;;5056783;28;20138;-54
2021/12/27 11:56:37;;;;;;;22.83;16.10;;;3.30;99.90;;;;;;5038403;28;20025;-54
2021/12/27 11:59:25;;;;;;;25.77;16.80;;;3.40;99.90;;;;;;5056836;28;20040;-57
2021/12/27 12:01:59;;;;;;;25.13;16.98;;;3.40;99.90;;;;;;5055741;28;20028;-58
2021/12/27 12:04:46;;;;;;;23.67;16.58;;;3.50;99.90;;;;;;5055839;28;20385;-57
2021/12/27 12:07:34;;;;;;;21.35;15.25;;;3.60;99.90;;;;;;5035943;28;20060;-56
2021/12/27 12:10:13;;;;;;;22.27;15.93;;;3.60;99.90;;;;;;5056338;28;20165;-54
2021/12/27 12:12:38;;;;;;;24.30;16.55;;;3.60;99.90;;;;;;5056377;28;20033;-57
2021/12/27 12:15:06;;;;;;;22.83;15.50;;;3.70;99.90;;;;;;5056063;28;20376;-58
2021/12/27 12:17:48;;;;;;;23.30;16.00;;;3.70;99.90;;;;;;5056102;28;20108;-56
2021/12/27 12:20:33;;;;;;;21.00;15.05;;;3.60;99.90;;;;;;5055456;28;20041;-56
2021/12/27 12:23:00;;;;;;;;;;;3.60;99.90;;;;;;5056369;28;20036;-58
2021/12/27 12:25:25;;;;;;;22.73;15.13;;;3.60;99.90;;;;;;5056000;28;19915;-58
2021/12/27 12:27:55;;;;;;;20.40;15.50;;;3.50;99.90;;;;;;5056395;28;20440;-56
2021/12/27 12:30:22;;;;;;;21.30;14.90;;;3.60;99.90;;;;;;5037709;28;20078;-58
2021/12/27 12:33:00;;;;;;;22.58;15.95;;;3.50;99.90;;;;;;5037835;28;20576;-59
2021/12/27 12:35:42;;;;;;;23.52;15.52;;;3.60;99.90;;;;;;5056069;28;20071;-57
2021/12/27 12:38:13;;;;;;;21.00;15.65;;;3.60;99.90;;;;;;5018407;28;20037;-55
2021/12/27 12:40:39;;;;;;;24.02;15.52;;;3.50;99.90;;;;;;5040542;28;20480;-55